sensor_id;sensor_type;location;lat;lon;timestamp;temperature;humidity
44707;DHT22;30433;45.596;8.408;2024-02-26T00:04:11;5.80;99.90
44707;DHT22;30433;45.596;8.408;2024-02-26T00:10:15;5.70;99.90
44707;DHT22;30433;45.596;8.408;2024-02-26T00:16:17;5.70;99.90
44707;DHT22;30433;45.596;8.408;2024-02-26T00:22:19;5.70;99.90
44707;DHT22;30433;45.596;8.408;2024-02-26T00:28:24;5.70;99.90
44707;DHT22;30433;45.596;8.408;2024-02-26T00:34:28;5.80;99.90
44707;DHT22;30433;45.596;8.408;2024-02-26T00:40:30;5.80;99.90
44707;DHT22;30433;45.596;8.408;2024-02-26T00:46:33;5.70;99.90
44707;DHT22;30433;45.596;8.408;2024-02-26T00:52:35;5.80;99.90
44707;DHT22;30433;45.596;8.408;2024-02-26T00:58:37;5.70;99.90
44707;DHT22;30433;45.596;8.408;2024-02-26T01:04:41;5.80;99.90
44707;DHT22;30433;45.596;8.408;2024-02-26T01:10:43;5.70;99.90
44707;DHT22;30433;45.596;8.408;2024-02-26T01:16:45;5.70;99.90
44707;DHT22;30433;45.596;8.408;2024-02-26T01:22:48;5.70;99.90
44707;DHT22;30433;45.596;8.408;2024-02-26T01:28:50;5.60;99.90
44707;DHT22;30433;45.596;8.408;2024-02-26T01:34:52;5.50;99.90
44707;DHT22;30433;45.596;8.408;2024-02-26T01:40:56;5.40;99.90
44707;DHT22;30433;45.596;8.408;2024-02-26T01:46:57;5.40;99.90
44707;DHT22;30433;45.596;8.408;2024-02-26T01:53:02;5.30;99.90
44707;DHT22;30433;45.596;8.408;2024-02-26T01:59:06;5.40;99.90
44707;DHT22;30433;45.596;8.408;2024-02-26T02:05:10;5.30;99.90
44707;DHT22;30433;45.596;8.408;2024-02-26T02:11:13;5.30;99.90
44707;DHT22;30433;45.596;8.408;2024-02-26T02:17:17;5.30;99.90
44707;DHT22;30433;45.596;8.408;2024-02-26T02:23:21;5.30;99.90
44707;DHT22;30433;45.596;8.408;2024-02-26T02:29:23;5.20;99.90
44707;DHT22;30433;45.596;8.408;2024-02-26T02:35:25;5.30;99.90
44707;DHT22;30433;45.596;8.408;2024-02-26T02:41:28;5.20;99.90
44707;DHT22;30433;45.596;8.408;2024-02-26T02:47:30;5.20;99.90
44707;DHT22;30433;45.596;8.408;2024-02-26T02:53:33;5.20;99.90
44707;DHT22;30433;45.596;8.408;2024-02-26T02:59:37;5.10;99.90
44707;DHT22;30433;45.596;8.408;2024-02-26T03:05:39;5.20;99.90
44707;DHT22;30433;45.596;8.408;2024-02-26T03:11:41;5.10;99.90
44707;DHT22;30433;45.596;8.408;2024-02-26T03:17:45;5.00;99.90
44707;DHT22;30433;45.596;8.408;2024-02-26T03:23:47;5.00;99.90
44707;DHT22;30433;45.596;8.408;2024-02-26T03:29:49;4.90;99.90
44707;DHT22;30433;45.596;8.408;2024-02-26T03:35:53;4.90;99.90
44707;DHT22;30433;45.596;8.408;2024-02-26T03:41:55;4.80;99.90
44707;DHT22;30433;45.596;8.408;2024-02-26T03:47:57;4.90;99.90
44707;DHT22;30433;45.596;8.408;2024-02-26T03:54:00;4.70;99.90
44707;DHT22;30433;45.596;8.408;2024-02-26T04:00:02;4.70;99.90
44707;DHT22;30433;45.596;8.408;2024-02-26T04:06:08;4.90;99.90
44707;DHT22;30433;45.596;8.408;2024-02-26T04:12:12;4.80;99.90
44707;DHT22;30433;45.596;8.408;2024-02-26T04:18:15;4.90;99.90
44707;DHT22;30433;45.596;8.408;2024-02-26T04:24:17;4.80;99.90
44707;DHT22;30433;45.596;8.408;2024-02-26T04:30:20;4.70;99.90
44707;DHT22;30433;45.596;8.408;2024-02-26T04:36:22;4.70;99.90
44707;DHT22;30433;45.596;8.408;2024-02-26T04:42:26;4.70;99.90
44707;DHT22;30433;45.596;8.408;2024-02-26T04:48:30;4.70;99.90
44707;DHT22;30433;45.596;8.408;2024-02-26T04:54:32;4.70;99.90
44707;DHT22;30433;45.596;8.408;2024-02-26T05:00:34;4.70;99.90
44707;DHT22;30433;45.596;8.408;2024-02-26T05:06:38;4.60;99.90
44707;DHT22;30433;45.596;8.408;2024-02-26T05:12:40;4.70;99.90
44707;DHT22;30433;45.596;8.408;2024-02-26T05:18:43;4.90;99.90
44707;DHT22;30433;45.596;8.408;2024-02-26T05:24:46;4.70;99.90
44707;DHT22;30433;45.596;8.408;2024-02-26T05:30:48;4.70;99.90
44707;DHT22;30433;45.596;8.408;2024-02-26T05:36:50;4.70;99.90
44707;DHT22;30433;45.596;8.408;2024-02-26T05:42:54;4.60;99.90
44707;DHT22;30433;45.596;8.408;2024-02-26T05:48:56;4.70;99.90
44707;DHT22;30433;45.596;8.408;2024-02-26T05:54:58;4.70;99.90
44707;DHT22;30433;45.596;8.408;2024-02-26T06:01:01;4.80;99.90
44707;DHT22;30433;45.596;8.408;2024-02-26T06:07:03;4.70;99.90
44707;DHT22;30433;45.596;8.408;2024-02-26T06:13:05;4.80;99.90
44707;DHT22;30433;45.596;8.408;2024-02-26T06:19:09;4.80;99.90
44707;DHT22;30433;45.596;8.408;2024-02-26T06:25:11;4.70;99.90
44707;DHT22;30433;45.596;8.408;2024-02-26T06:31:13;4.70;99.90
44707;DHT22;30433;45.596;8.408;2024-02-26T06:37:17;4.70;99.90
44707;DHT22;30433;45.596;8.408;2024-02-26T06:43:19;4.80;99.90
44707;DHT22;30433;45.596;8.408;2024-02-26T06:49:21;4.80;99.90
44707;DHT22;30433;45.596;8.408;2024-02-26T06:55:24;4.70;99.90
44707;DHT22;30433;45.596;8.408;2024-02-26T07:01:26;4.70;99.90
44707;DHT22;30433;45.596;8.408;2024-02-26T07:07:28;4.70;99.90
44707;DHT22;30433;45.596;8.408;2024-02-26T07:13:33;4.80;99.90
44707;DHT22;30433;45.596;8.408;2024-02-26T07:19:36;4.80;99.90
44707;DHT22;30433;45.596;8.408;2024-02-26T07:25:38;4.80;99.90
44707;DHT22;30433;45.596;8.408;2024-02-26T07:31:41;4.90;99.90
44707;DHT22;30433;45.596;8.408;2024-02-26T07:37:43;4.80;99.90
44707;DHT22;30433;45.596;8.408;2024-02-26T07:43:45;4.90;99.90
44707;DHT22;30433;45.596;8.408;2024-02-26T07:49:49;4.90;99.90
44707;DHT22;30433;45.596;8.408;2024-02-26T07:55:51;4.80;99.90
44707;DHT22;30433;45.596;8.408;2024-02-26T08:01:53;4.90;99.90
44707;DHT22;30433;45.596;8.408;2024-02-26T08:07:56;4.90;99.90
44707;DHT22;30433;45.596;8.408;2024-02-26T08:13:58;4.80;99.90
44707;DHT22;30433;45.596;8.408;2024-02-26T08:20:01;4.90;99.90
44707;DHT22;30433;45.596;8.408;2024-02-26T08:26:05;4.90;99.90
44707;DHT22;30433;45.596;8.408;2024-02-26T08:32:11;4.90;99.90
44707;DHT22;30433;45.596;8.408;2024-02-26T08:38:13;4.90;99.90
44707;DHT22;30433;45.596;8.408;2024-02-26T08:44:16;4.90;99.90
44707;DHT22;30433;45.596;8.408;2024-02-26T08:50:18;4.90;99.90
44707;DHT22;30433;45.596;8.408;2024-02-26T08:56:20;4.80;99.90
44707;DHT22;30433;45.596;8.408;2024-02-26T09:02:24;4.80;99.90
44707;DHT22;30433;45.596;8.408;2024-02-26T09:08:26;4.90;99.90
44707;DHT22;30433;45.596;8.408;2024-02-26T09:14:28;4.90;99.90
44707;DHT22;30433;45.596;8.408;2024-02-26T09:20:31;5.00;99.90
44707;DHT22;30433;45.596;8.408;2024-02-26T09:26:33;5.00;99.90
44707;DHT22;30433;45.596;8.408;2024-02-26T09:32:35;4.90;99.90
44707;DHT22;30433;45.596;8.408;2024-02-26T09:38:39;4.90;99.90
44707;DHT22;30433;45.596;8.408;2024-02-26T09:44:41;4.90;99.90
44707;DHT22;30433;45.596;8.408;2024-02-26T09:50:44;5.00;99.90
44707;DHT22;30433;45.596;8.408;2024-02-26T09:56:50;4.70;99.90
44707;DHT22;30433;45.596;8.408;2024-02-26T10:02:55;4.80;99.90
44707;DHT22;30433;45.596;8.408;2024-02-26T10:08:59;4.80;99.90
44707;DHT22;30433;45.596;8.408;2024-02-26T10:15:07;4.90;99.90
44707;DHT22;30433;45.596;8.408;2024-02-26T10:21:09;4.70;99.90
44707;DHT22;30433;45.596;8.408;2024-02-26T10:27:11;4.80;99.90
44707;DHT22;30433;45.596;8.408;2024-02-26T10:33:15;4.70;99.90
44707;DHT22;30433;45.596;8.408;2024-02-26T10:39:17;4.60;99.90
44707;DHT22;30433;45.596;8.408;2024-02-26T10:45:19;4.50;99.90
44707;DHT22;30433;45.596;8.408;2024-02-26T10:51:26;4.50;99.90
44707;DHT22;30433;45.596;8.408;2024-02-26T10:57:33;4.20;99.90
44707;DHT22;30433;45.596;8.408;2024-02-26T11:03:36;4.20;99.90
44707;DHT22;30433;45.596;8.408;2024-02-26T11:09:42;4.20;99.90
44707;DHT22;30433;45.596;8.408;2024-02-26T11:15:47;4.10;99.90
44707;DHT22;30433;45.596;8.408;2024-02-26T11:21:49;4.20;99.90
44707;DHT22;30433;45.596;8.408;2024-02-26T11:27:56;4.10;99.90
44707;DHT22;30433;45.596;8.408;2024-02-26T11:34:01;4.20;99.90
44707;DHT22;30433;45.596;8.408;2024-02-26T11:40:04;4.10;99.90
44707;DHT22;30433;45.596;8.408;2024-02-26T11:46:11;3.90;99.90
44707;DHT22;30433;45.596;8.408;2024-02-26T11:52:26;3.90;99.90
44707;DHT22;30433;45.596;8.408;2024-02-26T11:58:31;4.00;99.90
44707;DHT22;30433;45.596;8.408;2024-02-26T12:04:36;4.00;99.90
44707;DHT22;30433;45.596;8.408;2024-02-26T12:10:39;4.00;99.90
44707;DHT22;30433;45.596;8.408;2024-02-26T12:16:41;4.00;99.90
44707;DHT22;30433;45.596;8.408;2024-02-26T12:22:49;4.30;99.90
44707;DHT22;30433;45.596;8.408;2024-02-26T12:28:53;4.20;99.90
44707;DHT22;30433;45.596;8.408;2024-02-26T12:34:55;4.20;99.90
44707;DHT22;30433;45.596;8.408;2024-02-26T12:40:59;4.20;99.90
44707;DHT22;30433;45.596;8.408;2024-02-26T12:47:01;4.30;99.90
44707;DHT22;30433;45.596;8.408;2024-02-26T12:53:05;4.30;99.90
44707;DHT22;30433;45.596;8.408;2024-02-26T12:59:09;4.30;99.90
44707;DHT22;30433;45.596;8.408;2024-02-26T13:05:12;4.40;99.90
44707;DHT22;30433;45.596;8.408;2024-02-26T13:11:15;4.50;99.90
44707;DHT22;30433;45.596;8.408;2024-02-26T13:17:22;4.50;99.90
44707;DHT22;30433;45.596;8.408;2024-02-26T13:23:25;4.50;99.90
44707;DHT22;30433;45.596;8.408;2024-02-26T13:29:28;4.20;99.90
44707;DHT22;30433;45.596;8.408;2024-02-26T13:35:31;4.20;99.90
44707;DHT22;30433;45.596;8.408;2024-02-26T13:41:35;4.20;99.90
44707;DHT22;30433;45.596;8.408;2024-02-26T13:47:37;4.30;99.90
44707;DHT22;30433;45.596;8.408;2024-02-26T13:53:42;4.40;99.90
44707;DHT22;30433;45.596;8.408;2024-02-26T13:59:44;4.50;99.90
44707;DHT22;30433;45.596;8.408;2024-02-26T14:05:46;4.40;99.90
44707;DHT22;30433;45.596;8.408;2024-02-26T14:11:50;4.40;99.90
44707;DHT22;30433;45.596;8.408;2024-02-26T14:17:52;4.40;99.90
44707;DHT22;30433;45.596;8.408;2024-02-26T14:23:56;4.60;99.90
44707;DHT22;30433;45.596;8.408;2024-02-26T14:30:00;4.60;99.90
44707;DHT22;30433;45.596;8.408;2024-02-26T14:36:02;4.70;99.90
44707;DHT22;30433;45.596;8.408;2024-02-26T14:42:04;4.70;99.90
44707;DHT22;30433;45.596;8.408;2024-02-26T14:48:09;4.70;99.90
44707;DHT22;30433;45.596;8.408;2024-02-26T14:54:12;4.60;99.90
44707;DHT22;30433;45.596;8.408;2024-02-26T15:00:14;4.60;99.90
44707;DHT22;30433;45.596;8.408;2024-02-26T15:06:18;4.50;99.90
44707;DHT22;30433;45.596;8.408;2024-02-26T15:12:20;4.80;99.90
44707;DHT22;30433;45.596;8.408;2024-02-26T15:18:23;4.60;99.90
44707;DHT22;30433;45.596;8.408;2024-02-26T15:24:27;4.50;99.90
44707;DHT22;30433;45.596;8.408;2024-02-26T15:30:31;4.70;99.90
44707;DHT22;30433;45.596;8.408;2024-02-26T15:36:34;4.80;99.90
44707;DHT22;30433;45.596;8.408;2024-02-26T15:42:38;4.70;99.90
44707;DHT22;30433;45.596;8.408;2024-02-26T15:48:40;4.90;99.90
44707;DHT22;30433;45.596;8.408;2024-02-26T15:54:42;5.00;99.90
44707;DHT22;30433;45.596;8.408;2024-02-26T16:00:46;5.00;99.90
44707;DHT22;30433;45.596;8.408;2024-02-26T16:06:51;4.90;99.90
44707;DHT22;30433;45.596;8.408;2024-02-26T16:12:56;4.80;99.90
44707;DHT22;30433;45.596;8.408;2024-02-26T16:19:09;4.90;99.90
44707;DHT22;30433;45.596;8.408;2024-02-26T16:25:12;4.90;99.90
44707;DHT22;30433;45.596;8.408;2024-02-26T16:31:14;4.90;99.90
44707;DHT22;30433;45.596;8.408;2024-02-26T16:37:18;5.00;99.90
44707;DHT22;30433;45.596;8.408;2024-02-26T16:43:20;4.90;99.90
44707;DHT22;30433;45.596;8.408;2024-02-26T16:49:22;5.00;99.90
44707;DHT22;30433;45.596;8.408;2024-02-26T16:55:25;5.10;99.90
44707;DHT22;30433;45.596;8.408;2024-02-26T17:01:28;4.90;99.90
44707;DHT22;30433;45.596;8.408;2024-02-26T17:07:30;5.00;99.90
44707;DHT22;30433;45.596;8.408;2024-02-26T17:13:33;5.00;99.90
44707;DHT22;30433;45.596;8.408;2024-02-26T17:19:38;5.00;99.90
44707;DHT22;30433;45.596;8.408;2024-02-26T17:25:40;5.00;99.90
44707;DHT22;30433;45.596;8.408;2024-02-26T17:31:45;5.00;99.90
44707;DHT22;30433;45.596;8.408;2024-02-26T17:37:46;5.00;99.90
44707;DHT22;30433;45.596;8.408;2024-02-26T17:43:49;5.00;99.90
44707;DHT22;30433;45.596;8.408;2024-02-26T17:49:52;5.10;99.90
44707;DHT22;30433;45.596;8.408;2024-02-26T17:55:54;4.90;99.90
44707;DHT22;30433;45.596;8.408;2024-02-26T18:01:56;4.90;99.90
44707;DHT22;30433;45.596;8.408;2024-02-26T18:08:00;4.80;99.90
44707;DHT22;30433;45.596;8.408;2024-02-26T18:14:02;5.00;99.90
44707;DHT22;30433;45.596;8.408;2024-02-26T18:20:05;4.90;99.90
44707;DHT22;30433;45.596;8.408;2024-02-26T18:26:09;4.90;99.90
44707;DHT22;30433;45.596;8.408;2024-02-26T18:32:11;4.90;99.90
44707;DHT22;30433;45.596;8.408;2024-02-26T18:38:14;4.90;99.90
44707;DHT22;30433;45.596;8.408;2024-02-26T18:44:17;5.00;99.90
44707;DHT22;30433;45.596;8.408;2024-02-26T18:50:19;4.90;99.90
44707;DHT22;30433;45.596;8.408;2024-02-26T18:56:21;4.90;99.90
44707;DHT22;30433;45.596;8.408;2024-02-26T19:02:25;4.90;99.90
44707;DHT22;30433;45.596;8.408;2024-02-26T19:08:29;4.90;99.90
44707;DHT22;30433;45.596;8.408;2024-02-26T19:14:31;5.00;99.90
44707;DHT22;30433;45.596;8.408;2024-02-26T19:20:34;5.00;99.90
44707;DHT22;30433;45.596;8.408;2024-02-26T19:26:36;4.90;99.90
44707;DHT22;30433;45.596;8.408;2024-02-26T19:32:41;5.00;99.90
44707;DHT22;30433;45.596;8.408;2024-02-26T19:38:44;5.00;99.90
44707;DHT22;30433;45.596;8.408;2024-02-26T19:44:46;5.20;99.90
44707;DHT22;30433;45.596;8.408;2024-02-26T19:50:48;5.00;99.90
44707;DHT22;30433;45.596;8.408;2024-02-26T19:56:52;5.10;99.90
44707;DHT22;30433;45.596;8.408;2024-02-26T20:02:54;5.00;99.90
44707;DHT22;30433;45.596;8.408;2024-02-26T20:08:56;5.10;99.90
44707;DHT22;30433;45.596;8.408;2024-02-26T20:15:00;5.10;99.90
44707;DHT22;30433;45.596;8.408;2024-02-26T20:21:02;5.10;99.90
44707;DHT22;30433;45.596;8.408;2024-02-26T20:27:05;5.10;99.90
44707;DHT22;30433;45.596;8.408;2024-02-26T20:33:09;5.10;99.90
44707;DHT22;30433;45.596;8.408;2024-02-26T20:39:11;5.30;99.90
44707;DHT22;30433;45.596;8.408;2024-02-26T20:45:13;5.30;99.90
44707;DHT22;30433;45.596;8.408;2024-02-26T20:51:17;5.40;99.90
44707;DHT22;30433;45.596;8.408;2024-02-26T20:57:19;5.40;99.90
44707;DHT22;30433;45.596;8.408;2024-02-26T21:03:21;5.40;99.90
44707;DHT22;30433;45.596;8.408;2024-02-26T21:09:24;5.40;99.90
44707;DHT22;30433;45.596;8.408;2024-02-26T21:15:27;5.40;99.90
44707;DHT22;30433;45.596;8.408;2024-02-26T21:21:30;5.30;99.90
44707;DHT22;30433;45.596;8.408;2024-02-26T21:27:35;5.30;99.90
44707;DHT22;30433;45.596;8.408;2024-02-26T21:33:37;5.30;99.90
44707;DHT22;30433;45.596;8.408;2024-02-26T21:39:39;5.30;99.90
44707;DHT22;30433;45.596;8.408;2024-02-26T21:45:43;5.30;99.90
44707;DHT22;30433;45.596;8.408;2024-02-26T21:51:45;5.30;99.90
44707;DHT22;30433;45.596;8.408;2024-02-26T21:57:48;5.20;99.90
44707;DHT22;30433;45.596;8.408;2024-02-26T22:03:51;5.10;99.90
44707;DHT22;30433;45.596;8.408;2024-02-26T22:09:53;5.10;99.90
44707;DHT22;30433;45.596;8.408;2024-02-26T22:15:55;5.10;99.90
44707;DHT22;30433;45.596;8.408;2024-02-26T22:21:59;5.10;99.90
44707;DHT22;30433;45.596;8.408;2024-02-26T22:28:01;5.20;99.90
44707;DHT22;30433;45.596;8.408;2024-02-26T22:34:03;5.20;99.90
44707;DHT22;30433;45.596;8.408;2024-02-26T22:40:08;5.20;99.90
44707;DHT22;30433;45.596;8.408;2024-02-26T22:46:10;5.20;99.90
44707;DHT22;30433;45.596;8.408;2024-02-26T22:52:12;5.20;99.90
44707;DHT22;30433;45.596;8.408;2024-02-26T22:58:15;5.20;99.90
44707;DHT22;30433;45.596;8.408;2024-02-26T23:04:17;5.30;99.90
44707;DHT22;30433;45.596;8.408;2024-02-26T23:10:20;5.20;99.90
44707;DHT22;30433;45.596;8.408;2024-02-26T23:16:23;5.30;99.90
44707;DHT22;30433;45.596;8.408;2024-02-26T23:22:25;5.30;99.90
44707;DHT22;30433;45.596;8.408;2024-02-26T23:28:27;5.30;99.90
44707;DHT22;30433;45.596;8.408;2024-02-26T23:34:31;5.20;99.90
44707;DHT22;30433;45.596;8.408;2024-02-26T23:40:32;5.20;99.90
44707;DHT22;30433;45.596;8.408;2024-02-26T23:46:35;5.30;99.90
44707;DHT22;30433;45.596;8.408;2024-02-26T23:52:39;5.40;99.90
44707;DHT22;30433;45.596;8.408;2024-02-26T23:58:41;5.30;99.90
